sensor_id;sensor_type;location;lat;lon;timestamp;pressure;altitude;pressure_sealevel;temperature;humidity
43741;BME280;29352;48.708;9.290;2023-12-07T00:01:53;98125.31;;;-1.54;67.08
43741;BME280;29352;48.708;9.290;2023-12-07T00:04:18;98130.53;;;-1.54;67.70
43741;BME280;29352;48.708;9.290;2023-12-07T00:06:44;98134.03;;;-1.34;66.98
43741;BME280;29352;48.708;9.290;2023-12-07T00:09:09;98136.28;;;-1.10;66.61
43741;BME280;29352;48.708;9.290;2023-12-07T00:11:35;98141.66;;;-1.11;66.10
43741;BME280;29352;48.708;9.290;2023-12-07T00:14:00;98142.91;;;-0.86;65.20
43741;BME280;29352;48.708;9.290;2023-12-07T00:16:25;98139.47;;;-0.77;65.48
43741;BME280;29352;48.708;9.290;2023-12-07T00:18:51;98140.69;;;-0.62;64.77
43741;BME280;29352;48.708;9.290;2023-12-07T00:21:16;98136.00;;;-0.87;65.07
43741;BME280;29352;48.708;9.290;2023-12-07T00:23:42;98142.09;;;-1.56;66.23
43741;BME280;29352;48.708;9.290;2023-12-07T00:26:08;98142.25;;;-1.48;66.97
43741;BME280;29352;48.708;9.290;2023-12-07T00:28:35;98142.13;;;-1.47;66.64
43741;BME280;29352;48.708;9.290;2023-12-07T00:31:00;98140.75;;;-1.51;66.99
43741;BME280;29352;48.708;9.290;2023-12-07T00:33:27;98143.47;;;-1.52;66.83
43741;BME280;29352;48.708;9.290;2023-12-07T00:35:52;98142.28;;;-1.38;66.62
43741;BME280;29352;48.708;9.290;2023-12-07T00:38:18;98143.88;;;-1.57;66.74
43741;BME280;29352;48.708;9.290;2023-12-07T00:40:45;98143.44;;;-1.62;67.78
43741;BME280;29352;48.708;9.290;2023-12-07T00:43:10;98143.97;;;-1.68;67.38
43741;BME280;29352;48.708;9.290;2023-12-07T00:45:37;98148.94;;;-1.65;67.82
43741;BME280;29352;48.708;9.290;2023-12-07T00:48:04;98149.28;;;-1.49;67.42
43741;BME280;29352;48.708;9.290;2023-12-07T00:50:30;98150.50;;;-1.53;67.31
43741;BME280;29352;48.708;9.290;2023-12-07T00:52:56;98154.09;;;-1.54;67.59
43741;BME280;29352;48.708;9.290;2023-12-07T00:55:22;98143.69;;;-1.65;67.18
43741;BME280;29352;48.708;9.290;2023-12-07T00:57:47;98153.56;;;-1.78;67.69
43741;BME280;29352;48.708;9.290;2023-12-07T01:00:13;98150.28;;;-2.01;68.65
43741;BME280;29352;48.708;9.290;2023-12-07T01:02:40;98150.03;;;-1.68;67.97
43741;BME280;29352;48.708;9.290;2023-12-07T01:05:05;98151.34;;;-2.14;68.21
43741;BME280;29352;48.708;9.290;2023-12-07T01:07:31;98154.69;;;-2.02;68.33
43741;BME280;29352;48.708;9.290;2023-12-07T01:09:57;98154.09;;;-1.84;68.26
43741;BME280;29352;48.708;9.290;2023-12-07T01:12:22;98165.94;;;-1.50;67.76
43741;BME280;29352;48.708;9.290;2023-12-07T01:14:48;98163.38;;;-1.40;67.09
43741;BME280;29352;48.708;9.290;2023-12-07T01:17:14;98167.53;;;-1.68;67.45
43741;BME280;29352;48.708;9.290;2023-12-07T01:19:39;98168.34;;;-1.68;67.40
43741;BME280;29352;48.708;9.290;2023-12-07T01:22:05;98174.25;;;-1.75;67.74
43741;BME280;29352;48.708;9.290;2023-12-07T01:24:30;98167.00;;;-1.62;67.25
43741;BME280;29352;48.708;9.290;2023-12-07T01:26:56;98178.78;;;-1.47;67.39
43741;BME280;29352;48.708;9.290;2023-12-07T01:29:21;98181.88;;;-1.22;66.71
43741;BME280;29352;48.708;9.290;2023-12-07T01:31:47;98183.72;;;-1.53;66.72
43741;BME280;29352;48.708;9.290;2023-12-07T01:34:12;98184.44;;;-1.51;66.46
43741;BME280;29352;48.708;9.290;2023-12-07T01:36:38;98183.44;;;-0.90;65.55
43741;BME280;29352;48.708;9.290;2023-12-07T01:39:05;98182.66;;;-0.81;64.87
43741;BME280;29352;48.708;9.290;2023-12-07T01:41:30;98180.16;;;-0.63;64.54
43741;BME280;29352;48.708;9.290;2023-12-07T01:43:56;98183.19;;;-0.49;64.11
43741;BME280;29352;48.708;9.290;2023-12-07T01:46:23;98184.63;;;-1.33;66.13
43741;BME280;29352;48.708;9.290;2023-12-07T01:48:49;98184.16;;;-1.38;66.31
43741;BME280;29352;48.708;9.290;2023-12-07T01:51:18;98183.03;;;-0.96;65.02
43741;BME280;29352;48.708;9.290;2023-12-07T01:53:46;98188.16;;;-1.44;65.90
43741;BME280;29352;48.708;9.290;2023-12-07T01:56:13;98186.41;;;-1.64;66.83
43741;BME280;29352;48.708;9.290;2023-12-07T01:58:41;98188.06;;;-1.63;67.02
43741;BME280;29352;48.708;9.290;2023-12-07T02:01:08;98195.03;;;-1.74;66.79
43741;BME280;29352;48.708;9.290;2023-12-07T02:03:39;98189.84;;;-2.16;67.77
43741;BME280;29352;48.708;9.290;2023-12-07T02:06:06;98197.25;;;-1.69;67.24
43741;BME280;29352;48.708;9.290;2023-12-07T02:08:35;98192.66;;;-1.56;66.37
43741;BME280;29352;48.708;9.290;2023-12-07T02:11:01;98199.72;;;-1.47;67.01
43741;BME280;29352;48.708;9.290;2023-12-07T02:13:27;98198.84;;;-1.57;66.94
43741;BME280;29352;48.708;9.290;2023-12-07T02:15:57;98189.44;;;-1.29;66.05
43741;BME280;29352;48.708;9.290;2023-12-07T02:18:34;98189.06;;;-1.85;66.96
43741;BME280;29352;48.708;9.290;2023-12-07T02:21:16;98195.09;;;-2.16;68.42
43741;BME280;29352;48.708;9.290;2023-12-07T02:23:51;98181.84;;;-2.14;68.12
43741;BME280;29352;48.708;9.290;2023-12-07T02:26:20;98186.00;;;-2.32;67.91
43741;BME280;29352;48.708;9.290;2023-12-07T02:28:47;98185.38;;;-2.25;68.68
43741;BME280;29352;48.708;9.290;2023-12-07T02:31:14;98189.41;;;-2.00;67.99
43741;BME280;29352;48.708;9.290;2023-12-07T02:33:39;98190.81;;;-1.96;66.54
43741;BME280;29352;48.708;9.290;2023-12-07T02:36:05;98188.88;;;-2.35;68.39
43741;BME280;29352;48.708;9.290;2023-12-07T02:38:32;98192.22;;;-2.33;67.86
43741;BME280;29352;48.708;9.290;2023-12-07T02:41:00;98192.78;;;-2.30;67.64
43741;BME280;29352;48.708;9.290;2023-12-07T02:43:27;98188.97;;;-2.26;67.99
43741;BME280;29352;48.708;9.290;2023-12-07T02:45:54;98197.25;;;-2.21;67.82
43741;BME280;29352;48.708;9.290;2023-12-07T02:48:21;98193.88;;;-2.32;67.46
43741;BME280;29352;48.708;9.290;2023-12-07T02:50:46;98202.94;;;-2.69;67.99
43741;BME280;29352;48.708;9.290;2023-12-07T02:53:12;98195.13;;;-2.69;68.56
43741;BME280;29352;48.708;9.290;2023-12-07T02:55:38;98193.28;;;-2.57;68.30
43741;BME280;29352;48.708;9.290;2023-12-07T02:58:03;98195.22;;;-2.70;68.39
43741;BME280;29352;48.708;9.290;2023-12-07T03:00:29;98183.00;;;-2.49;67.45
43741;BME280;29352;48.708;9.290;2023-12-07T03:02:54;98192.91;;;-2.85;68.81
43741;BME280;29352;48.708;9.290;2023-12-07T03:05:21;98195.72;;;-2.44;68.00
43741;BME280;29352;48.708;9.290;2023-12-07T03:07:48;98197.53;;;-2.56;68.03
43741;BME280;29352;48.708;9.290;2023-12-07T03:10:13;98199.75;;;-2.72;68.24
43741;BME280;29352;48.708;9.290;2023-12-07T03:12:39;98195.72;;;-2.44;67.95
43741;BME280;29352;48.708;9.290;2023-12-07T03:15:05;98197.03;;;-2.50;68.02
43741;BME280;29352;48.708;9.290;2023-12-07T03:17:31;98206.28;;;-2.78;68.00
43741;BME280;29352;48.708;9.290;2023-12-07T03:19:57;98198.78;;;-2.71;68.29
43741;BME280;29352;48.708;9.290;2023-12-07T03:22:24;98201.94;;;-2.56;67.33
43741;BME280;29352;48.708;9.290;2023-12-07T03:24:52;98202.09;;;-3.01;67.73
43741;BME280;29352;48.708;9.290;2023-12-07T03:27:18;98201.03;;;-3.21;68.11
43741;BME280;29352;48.708;9.290;2023-12-07T03:29:44;98198.38;;;-2.88;68.12
43741;BME280;29352;48.708;9.290;2023-12-07T03:32:10;98195.59;;;-2.75;68.61
43741;BME280;29352;48.708;9.290;2023-12-07T03:34:35;98197.16;;;-2.83;68.42
43741;BME280;29352;48.708;9.290;2023-12-07T03:37:01;98200.94;;;-3.20;69.34
43741;BME280;29352;48.708;9.290;2023-12-07T03:39:28;98202.66;;;-2.98;69.21
43741;BME280;29352;48.708;9.290;2023-12-07T03:41:55;98194.53;;;-2.83;68.22
43741;BME280;29352;48.708;9.290;2023-12-07T03:44:20;98204.78;;;-2.92;67.16
43741;BME280;29352;48.708;9.290;2023-12-07T03:46:46;98204.25;;;-3.06;67.89
43741;BME280;29352;48.708;9.290;2023-12-07T03:49:12;98199.59;;;-3.03;67.73
43741;BME280;29352;48.708;9.290;2023-12-07T03:51:38;98207.00;;;-3.19;67.95
43741;BME280;29352;48.708;9.290;2023-12-07T03:54:04;98206.19;;;-3.42;68.24
43741;BME280;29352;48.708;9.290;2023-12-07T03:56:32;98216.75;;;-3.44;68.56
43741;BME280;29352;48.708;9.290;2023-12-07T03:58:59;98218.53;;;-3.44;67.78
43741;BME280;29352;48.708;9.290;2023-12-07T04:01:29;98214.44;;;-3.03;67.06
43741;BME280;29352;48.708;9.290;2023-12-07T04:03:56;98219.31;;;-3.21;68.20
43741;BME280;29352;48.708;9.290;2023-12-07T04:06:27;98221.34;;;-3.25;67.89
43741;BME280;29352;48.708;9.290;2023-12-07T04:08:53;98225.53;;;-3.45;67.85
43741;BME280;29352;48.708;9.290;2023-12-07T04:11:19;98223.38;;;-3.17;67.86
43741;BME280;29352;48.708;9.290;2023-12-07T04:13:45;98229.06;;;-3.12;67.09
43741;BME280;29352;48.708;9.290;2023-12-07T04:16:11;98231.22;;;-3.51;69.15
43741;BME280;29352;48.708;9.290;2023-12-07T04:18:37;98223.97;;;-3.25;67.21
43741;BME280;29352;48.708;9.290;2023-12-07T04:21:03;98233.47;;;-3.35;67.44
43741;BME280;29352;48.708;9.290;2023-12-07T04:23:31;98227.06;;;-3.53;68.10
43741;BME280;29352;48.708;9.290;2023-12-07T04:25:58;98228.84;;;-3.31;68.31
43741;BME280;29352;48.708;9.290;2023-12-07T04:28:24;98222.44;;;-3.50;67.94
43741;BME280;29352;48.708;9.290;2023-12-07T04:30:51;98227.44;;;-3.24;67.38
43741;BME280;29352;48.708;9.290;2023-12-07T04:33:17;98231.22;;;-3.40;67.85
43741;BME280;29352;48.708;9.290;2023-12-07T04:35:43;98223.38;;;-3.28;67.45
43741;BME280;29352;48.708;9.290;2023-12-07T04:38:08;98230.97;;;-3.37;67.20
43741;BME280;29352;48.708;9.290;2023-12-07T04:40:34;98232.66;;;-3.24;67.32
43741;BME280;29352;48.708;9.290;2023-12-07T04:42:59;98235.97;;;-3.34;67.22
43741;BME280;29352;48.708;9.290;2023-12-07T04:45:25;98230.50;;;-3.64;67.79
43741;BME280;29352;48.708;9.290;2023-12-07T04:47:51;98236.34;;;-3.38;67.17
43741;BME280;29352;48.708;9.290;2023-12-07T04:50:17;98231.19;;;-3.28;67.04
43741;BME280;29352;48.708;9.290;2023-12-07T04:52:42;98232.72;;;-3.15;66.42
43741;BME280;29352;48.708;9.290;2023-12-07T04:55:08;98239.28;;;-3.76;67.81
43741;BME280;29352;48.708;9.290;2023-12-07T04:57:34;98241.41;;;-3.25;66.88
43741;BME280;29352;48.708;9.290;2023-12-07T05:00:01;98234.75;;;-3.86;68.01
43741;BME280;29352;48.708;9.290;2023-12-07T05:02:32;98229.34;;;-3.49;67.33
43741;BME280;29352;48.708;9.290;2023-12-07T05:04:58;98233.38;;;-3.45;67.56
43741;BME280;29352;48.708;9.290;2023-12-07T05:07:25;98236.91;;;-3.57;67.85
43741;BME280;29352;48.708;9.290;2023-12-07T05:09:50;98235.13;;;-3.57;68.66
43741;BME280;29352;48.708;9.290;2023-12-07T05:12:17;98235.91;;;-2.89;67.24
43741;BME280;29352;48.708;9.290;2023-12-07T05:14:42;98235.41;;;-2.94;66.24
43741;BME280;29352;48.708;9.290;2023-12-07T05:17:09;98238.44;;;-3.77;67.91
43741;BME280;29352;48.708;9.290;2023-12-07T05:19:34;98240.56;;;-3.60;67.69
43741;BME280;29352;48.708;9.290;2023-12-07T05:22:00;98251.16;;;-3.50;67.65
43741;BME280;29352;48.708;9.290;2023-12-07T05:24:26;98248.06;;;-3.55;67.92
43741;BME280;29352;48.708;9.290;2023-12-07T05:26:53;98244.00;;;-3.70;68.52
43741;BME280;29352;48.708;9.290;2023-12-07T05:29:18;98249.84;;;-3.44;68.07
43741;BME280;29352;48.708;9.290;2023-12-07T05:31:44;98254.00;;;-3.53;68.00
43741;BME280;29352;48.708;9.290;2023-12-07T05:34:10;98252.59;;;-3.35;67.50
43741;BME280;29352;48.708;9.290;2023-12-07T05:36:36;98254.97;;;-3.31;66.96
43741;BME280;29352;48.708;9.290;2023-12-07T05:39:01;98242.72;;;-3.31;67.08
43741;BME280;29352;48.708;9.290;2023-12-07T05:41:27;98251.41;;;-3.42;67.43
43741;BME280;29352;48.708;9.290;2023-12-07T05:43:52;98255.91;;;-3.55;67.39
43741;BME280;29352;48.708;9.290;2023-12-07T05:46:19;98251.97;;;-3.49;67.40
43741;BME280;29352;48.708;9.290;2023-12-07T05:48:44;98260.03;;;-3.64;66.78
43741;BME280;29352;48.708;9.290;2023-12-07T05:51:15;98251.88;;;-3.37;66.43
43741;BME280;29352;48.708;9.290;2023-12-07T05:53:42;98254.25;;;-3.45;66.99
43741;BME280;29352;48.708;9.290;2023-12-07T05:56:09;98245.94;;;-3.61;66.34
43741;BME280;29352;48.708;9.290;2023-12-07T05:58:37;98246.88;;;-3.62;67.02
43741;BME280;29352;48.708;9.290;2023-12-07T06:01:03;98244.72;;;-3.79;66.99
43741;BME280;29352;48.708;9.290;2023-12-07T06:03:30;98243.41;;;-3.85;67.56
43741;BME280;29352;48.708;9.290;2023-12-07T06:05:55;98244.16;;;-3.72;67.33
43741;BME280;29352;48.708;9.290;2023-12-07T06:08:22;98252.44;;;-3.78;69.64
43741;BME280;29352;48.708;9.290;2023-12-07T06:10:48;98244.28;;;-3.62;68.05
43741;BME280;29352;48.708;9.290;2023-12-07T06:13:15;98244.59;;;-3.89;67.47
43741;BME280;29352;48.708;9.290;2023-12-07T06:15:41;98245.88;;;-3.84;67.49
43741;BME280;29352;48.708;9.290;2023-12-07T06:18:06;98250.78;;;-3.90;67.46
43741;BME280;29352;48.708;9.290;2023-12-07T06:20:33;98244.59;;;-3.78;67.38
43741;BME280;29352;48.708;9.290;2023-12-07T06:23:00;98245.06;;;-3.84;69.19
43741;BME280;29352;48.708;9.290;2023-12-07T06:25:28;98247.13;;;-3.65;67.60
43741;BME280;29352;48.708;9.290;2023-12-07T06:27:53;98238.56;;;-3.78;67.67
43741;BME280;29352;48.708;9.290;2023-12-07T06:30:18;98246.22;;;-3.99;68.32
43741;BME280;29352;48.708;9.290;2023-12-07T06:32:45;98243.91;;;-3.80;67.20
43741;BME280;29352;48.708;9.290;2023-12-07T06:35:13;98245.19;;;-3.74;67.11
43741;BME280;29352;48.708;9.290;2023-12-07T06:37:39;98248.94;;;-4.01;67.07
43741;BME280;29352;48.708;9.290;2023-12-07T06:40:09;98250.94;;;-4.05;66.92
43741;BME280;29352;48.708;9.290;2023-12-07T06:42:35;98257.13;;;-4.30;67.10
43741;BME280;29352;48.708;9.290;2023-12-07T06:45:02;98248.63;;;-4.20;67.19
43741;BME280;29352;48.708;9.290;2023-12-07T06:47:28;98258.31;;;-4.34;67.05
43741;BME280;29352;48.708;9.290;2023-12-07T06:49:54;98258.16;;;-4.43;67.63
43741;BME280;29352;48.708;9.290;2023-12-07T06:52:21;98256.06;;;-4.27;67.64
43741;BME280;29352;48.708;9.290;2023-12-07T06:54:46;98258.91;;;-4.06;68.14
43741;BME280;29352;48.708;9.290;2023-12-07T06:57:13;98252.91;;;-4.08;66.81
43741;BME280;29352;48.708;9.290;2023-12-07T06:59:39;98256.59;;;-3.87;66.68
43741;BME280;29352;48.708;9.290;2023-12-07T07:02:06;98254.81;;;-4.21;67.70
43741;BME280;29352;48.708;9.290;2023-12-07T07:04:32;98251.91;;;-4.06;68.06
43741;BME280;29352;48.708;9.290;2023-12-07T07:06:57;98247.81;;;-3.86;67.70
43741;BME280;29352;48.708;9.290;2023-12-07T07:09:23;98248.63;;;-3.74;67.98
43741;BME280;29352;48.708;9.290;2023-12-07T07:11:49;98253.53;;;-3.69;67.85
43741;BME280;29352;48.708;9.290;2023-12-07T07:14:15;98248.75;;;-3.19;67.57
43741;BME280;29352;48.708;9.290;2023-12-07T07:16:41;98249.69;;;-3.09;65.75
43741;BME280;29352;48.708;9.290;2023-12-07T07:19:06;98249.16;;;-2.37;64.15
43741;BME280;29352;48.708;9.290;2023-12-07T07:21:32;98251.72;;;-3.13;65.66
43741;BME280;29352;48.708;9.290;2023-12-07T07:23:57;98241.41;;;-2.06;62.93
43741;BME280;29352;48.708;9.290;2023-12-07T07:26:23;98245.66;;;-1.33;62.69
43741;BME280;29352;48.708;9.290;2023-12-07T07:28:51;98238.97;;;-1.16;61.76
43741;BME280;29352;48.708;9.290;2023-12-07T07:31:17;98237.16;;;-1.25;61.35
43741;BME280;29352;48.708;9.290;2023-12-07T07:33:44;98229.28;;;-0.46;59.17
43741;BME280;29352;48.708;9.290;2023-12-07T07:36:12;98235.63;;;-0.29;59.77
43741;BME280;29352;48.708;9.290;2023-12-07T07:38:40;98232.13;;;0.66;57.70
43741;BME280;29352;48.708;9.290;2023-12-07T07:41:06;98240.31;;;-0.72;59.26
43741;BME280;29352;48.708;9.290;2023-12-07T07:43:31;98243.34;;;-0.66;60.81
43741;BME280;29352;48.708;9.290;2023-12-07T07:45:57;98244.63;;;-1.11;60.17
43741;BME280;29352;48.708;9.290;2023-12-07T07:48:22;98252.81;;;-3.38;63.11
43741;BME280;29352;48.708;9.290;2023-12-07T07:50:48;98258.72;;;-3.13;63.22
43741;BME280;29352;48.708;9.290;2023-12-07T07:53:14;98263.09;;;-2.91;65.45
43741;BME280;29352;48.708;9.290;2023-12-07T07:55:39;98253.53;;;-1.33;63.19
43741;BME280;29352;48.708;9.290;2023-12-07T07:58:05;98254.38;;;-0.63;60.38
43741;BME280;29352;48.708;9.290;2023-12-07T08:00:31;98260.47;;;-0.04;59.50
43741;BME280;29352;48.708;9.290;2023-12-07T08:02:58;98252.09;;;1.14;56.58
43741;BME280;29352;48.708;9.290;2023-12-07T08:05:24;98254.09;;;0.28;57.45
43741;BME280;29352;48.708;9.290;2023-12-07T08:07:50;98247.16;;;1.82;56.10
43741;BME280;29352;48.708;9.290;2023-12-07T08:10:16;98253.03;;;0.58;58.78
43741;BME280;29352;48.708;9.290;2023-12-07T08:12:43;98244.97;;;2.13;55.77
43741;BME280;29352;48.708;9.290;2023-12-07T08:15:09;98250.09;;;1.79;56.79
43741;BME280;29352;48.708;9.290;2023-12-07T08:17:40;98245.25;;;2.97;54.50
43741;BME280;29352;48.708;9.290;2023-12-07T08:20:10;98246.13;;;2.37;54.20
43741;BME280;29352;48.708;9.290;2023-12-07T08:22:38;98239.31;;;3.53;52.36
43741;BME280;29352;48.708;9.290;2023-12-07T08:25:06;98246.75;;;4.15;52.54
43741;BME280;29352;48.708;9.290;2023-12-07T08:27:33;98242.25;;;4.40;51.05
43741;BME280;29352;48.708;9.290;2023-12-07T08:29:59;98249.41;;;4.15;50.24
43741;BME280;29352;48.708;9.290;2023-12-07T08:32:25;98251.41;;;4.13;50.71
43741;BME280;29352;48.708;9.290;2023-12-07T08:34:53;98244.75;;;4.25;50.74
43741;BME280;29352;48.708;9.290;2023-12-07T08:37:18;98253.47;;;2.94;53.06
43741;BME280;29352;48.708;9.290;2023-12-07T08:39:45;98245.06;;;2.04;55.43
43741;BME280;29352;48.708;9.290;2023-12-07T08:42:11;98249.25;;;2.14;57.21
43741;BME280;29352;48.708;9.290;2023-12-07T08:44:37;98251.31;;;3.40;54.90
43741;BME280;29352;48.708;9.290;2023-12-07T08:47:04;98243.94;;;2.06;55.26
43741;BME280;29352;48.708;9.290;2023-12-07T08:49:30;98247.38;;;0.90;56.21
43741;BME280;29352;48.708;9.290;2023-12-07T08:51:57;98255.56;;;1.32;56.17
43741;BME280;29352;48.708;9.290;2023-12-07T08:54:23;98260.53;;;0.80;57.47
43741;BME280;29352;48.708;9.290;2023-12-07T08:56:48;98252.84;;;0.69;57.46
43741;BME280;29352;48.708;9.290;2023-12-07T08:59:15;98255.00;;;0.83;56.81
43741;BME280;29352;48.708;9.290;2023-12-07T09:01:40;98248.28;;;1.26;56.89
43741;BME280;29352;48.708;9.290;2023-12-07T09:04:06;98248.16;;;0.26;57.85
43741;BME280;29352;48.708;9.290;2023-12-07T09:06:31;98239.19;;;0.18;59.05
43741;BME280;29352;48.708;9.290;2023-12-07T09:08:58;98231.31;;;0.93;57.18
43741;BME280;29352;48.708;9.290;2023-12-07T09:11:23;98227.53;;;2.12;54.09
43741;BME280;29352;48.708;9.290;2023-12-07T09:13:49;98236.72;;;1.19;55.56
43741;BME280;29352;48.708;9.290;2023-12-07T09:16:15;98231.88;;;0.87;56.64
43741;BME280;29352;48.708;9.290;2023-12-07T09:18:42;98234.84;;;1.47;55.38
43741;BME280;29352;48.708;9.290;2023-12-07T09:21:08;98228.84;;;1.55;56.51
43741;BME280;29352;48.708;9.290;2023-12-07T09:23:34;98220.94;;;2.77;53.74
43741;BME280;29352;48.708;9.290;2023-12-07T09:26:00;98218.97;;;2.19;54.77
43741;BME280;29352;48.708;9.290;2023-12-07T09:28:26;98223.50;;;3.78;52.01
43741;BME280;29352;48.708;9.290;2023-12-07T09:30:51;98210.75;;;4.31;50.83
43741;BME280;29352;48.708;9.290;2023-12-07T09:33:18;98211.63;;;3.74;50.74
43741;BME280;29352;48.708;9.290;2023-12-07T09:35:44;98207.94;;;2.75;53.80
43741;BME280;29352;48.708;9.290;2023-12-07T09:38:09;98201.75;;;4.64;51.38
43741;BME280;29352;48.708;9.290;2023-12-07T09:40:35;98204.59;;;5.25;49.18
43741;BME280;29352;48.708;9.290;2023-12-07T09:43:01;98207.69;;;5.06;50.52
43741;BME280;29352;48.708;9.290;2023-12-07T09:45:27;98227.78;;;1.48;54.31
43741;BME280;29352;48.708;9.290;2023-12-07T09:47:54;98228.88;;;1.81;54.46
43741;BME280;29352;48.708;9.290;2023-12-07T09:50:22;98219.25;;;3.18;52.39
43741;BME280;29352;48.708;9.290;2023-12-07T09:52:50;98205.06;;;3.03;52.74
43741;BME280;29352;48.708;9.290;2023-12-07T09:55:18;98205.03;;;2.60;53.06
43741;BME280;29352;48.708;9.290;2023-12-07T09:57:46;98197.84;;;2.71;52.19
43741;BME280;29352;48.708;9.290;2023-12-07T10:00:13;98183.72;;;3.71;52.29
43741;BME280;29352;48.708;9.290;2023-12-07T10:02:41;98194.78;;;3.42;50.35
43741;BME280;29352;48.708;9.290;2023-12-07T10:05:12;98194.41;;;2.10;53.26
43741;BME280;29352;48.708;9.290;2023-12-07T10:07:46;98195.28;;;3.38;51.55
43741;BME280;29352;48.708;9.290;2023-12-07T10:10:17;98192.25;;;2.74;52.31
43741;BME280;29352;48.708;9.290;2023-12-07T10:12:55;98193.53;;;1.83;53.48
43741;BME280;29352;48.708;9.290;2023-12-07T10:15:24;98174.44;;;3.18;52.00
43741;BME280;29352;48.708;9.290;2023-12-07T10:17:57;98170.88;;;3.76;51.37
43741;BME280;29352;48.708;9.290;2023-12-07T10:20:26;98165.75;;;3.83;51.09
43741;BME280;29352;48.708;9.290;2023-12-07T10:23:04;98164.59;;;3.45;50.58
43741;BME280;29352;48.708;9.290;2023-12-07T10:25:33;98168.16;;;3.11;50.82
43741;BME280;29352;48.708;9.290;2023-12-07T10:28:01;98161.97;;;3.45;51.16
43741;BME280;29352;48.708;9.290;2023-12-07T10:30:32;98158.84;;;3.41;50.50
43741;BME280;29352;48.708;9.290;2023-12-07T10:32:57;98153.88;;;3.71;51.21
43741;BME280;29352;48.708;9.290;2023-12-07T10:35:23;98134.50;;;4.67;49.95
43741;BME280;29352;48.708;9.290;2023-12-07T10:37:49;98142.34;;;3.72;50.62
43741;BME280;29352;48.708;9.290;2023-12-07T10:40:14;98137.13;;;2.89;52.01
43741;BME280;29352;48.708;9.290;2023-12-07T10:42:41;98136.06;;;3.56;50.07
43741;BME280;29352;48.708;9.290;2023-12-07T10:45:08;98139.13;;;4.09;49.29
43741;BME280;29352;48.708;9.290;2023-12-07T10:47:38;98136.72;;;3.67;50.44
43741;BME280;29352;48.708;9.290;2023-12-07T10:50:07;98138.53;;;3.42;50.70
43741;BME280;29352;48.708;9.290;2023-12-07T10:52:44;98135.06;;;3.57;50.77
43741;BME280;29352;48.708;9.290;2023-12-07T10:55:16;98130.56;;;4.07;51.77
43741;BME280;29352;48.708;9.290;2023-12-07T10:57:46;98125.88;;;4.96;49.45
43741;BME280;29352;48.708;9.290;2023-12-07T11:00:13;98129.69;;;5.25;49.16
43741;BME280;29352;48.708;9.290;2023-12-07T11:02:41;98116.97;;;5.20;48.07
43741;BME280;29352;48.708;9.290;2023-12-07T11:05:08;98130.03;;;4.98;49.43
43741;BME280;29352;48.708;9.290;2023-12-07T11:07:50;98133.13;;;4.32;48.66
43741;BME280;29352;48.708;9.290;2023-12-07T11:10:33;98117.91;;;3.70;49.84
43741;BME280;29352;48.708;9.290;2023-12-07T11:13:29;98109.97;;;4.34;49.51
43741;BME280;29352;48.708;9.290;2023-12-07T11:16:00;98096.59;;;4.52;49.04
43741;BME280;29352;48.708;9.290;2023-12-07T11:18:27;98097.81;;;2.53;51.47
43741;BME280;29352;48.708;9.290;2023-12-07T11:20:55;98090.22;;;3.49;51.12
43741;BME280;29352;48.708;9.290;2023-12-07T11:23:22;98084.66;;;4.08;48.63
43741;BME280;29352;48.708;9.290;2023-12-07T11:25:49;98088.69;;;3.71;49.77
43741;BME280;29352;48.708;9.290;2023-12-07T11:28:17;98077.81;;;3.66;49.71
43741;BME280;29352;48.708;9.290;2023-12-07T11:30:44;98072.06;;;3.63;49.12
43741;BME280;29352;48.708;9.290;2023-12-07T11:33:11;98066.59;;;3.64;49.20
43741;BME280;29352;48.708;9.290;2023-12-07T11:38:25;98060.19;;;3.18;50.89
43741;BME280;29352;48.708;9.290;2023-12-07T11:40:50;98058.56;;;4.13;49.05
43741;BME280;29352;48.708;9.290;2023-12-07T11:46:10;98042.69;;;3.57;49.10
43741;BME280;29352;48.708;9.290;2023-12-07T11:48:37;98033.47;;;3.53;49.72
43741;BME280;29352;48.708;9.290;2023-12-07T11:51:07;98033.22;;;3.96;48.85
43741;BME280;29352;48.708;9.290;2023-12-07T11:53:37;98036.28;;;3.11;50.61
43741;BME280;29352;48.708;9.290;2023-12-07T11:56:06;98032.66;;;3.12;50.17
43741;BME280;29352;48.708;9.290;2023-12-07T11:58:37;98020.47;;;3.52;49.85
43741;BME280;29352;48.708;9.290;2023-12-07T12:01:03;98020.25;;;4.09;49.12
43741;BME280;29352;48.708;9.290;2023-12-07T12:03:31;98028.97;;;3.70;49.44
43741;BME280;29352;48.708;9.290;2023-12-07T12:05:57;98008.50;;;3.80;48.98
43741;BME280;29352;48.708;9.290;2023-12-07T12:08:24;98013.19;;;3.54;48.72
43741;BME280;29352;48.708;9.290;2023-12-07T12:10:51;98001.50;;;3.16;49.88
43741;BME280;29352;48.708;9.290;2023-12-07T12:13:19;97995.06;;;3.43;49.43
43741;BME280;29352;48.708;9.290;2023-12-07T12:15:52;97984.19;;;3.21;48.59
43741;BME280;29352;48.708;9.290;2023-12-07T12:18:18;97994.09;;;2.95;49.87
43741;BME280;29352;48.708;9.290;2023-12-07T12:20:45;97985.53;;;2.93;50.31
43741;BME280;29352;48.708;9.290;2023-12-07T12:23:11;97983.03;;;3.16;50.10
43741;BME280;29352;48.708;9.290;2023-12-07T12:25:39;97989.81;;;2.61;50.17
43741;BME280;29352;48.708;9.290;2023-12-07T12:28:07;97981.56;;;2.56;49.79
43741;BME280;29352;48.708;9.290;2023-12-07T12:30:33;97979.28;;;2.61;50.52
43741;BME280;29352;48.708;9.290;2023-12-07T12:32:59;97979.53;;;1.83;51.75
43741;BME280;29352;48.708;9.290;2023-12-07T12:35:25;97983.81;;;0.98;51.69
43741;BME280;29352;48.708;9.290;2023-12-07T12:37:52;97974.84;;;1.34;52.04
43741;BME280;29352;48.708;9.290;2023-12-07T12:40:21;97970.00;;;1.22;52.02
43741;BME280;29352;48.708;9.290;2023-12-07T12:42:50;97961.38;;;0.85;53.06
43741;BME280;29352;48.708;9.290;2023-12-07T12:45:18;97948.63;;;2.52;50.05
43741;BME280;29352;48.708;9.290;2023-12-07T12:47:47;97949.28;;;2.37;50.96
43741;BME280;29352;48.708;9.290;2023-12-07T12:53:04;97946.28;;;2.16;51.54
43741;BME280;29352;48.708;9.290;2023-12-07T12:55:36;97944.66;;;2.31;50.83
43741;BME280;29352;48.708;9.290;2023-12-07T12:58:04;97946.72;;;1.95;52.14
43741;BME280;29352;48.708;9.290;2023-12-07T13:00:32;97940.00;;;2.09;52.01
43741;BME280;29352;48.708;9.290;2023-12-07T13:03:04;97930.59;;;0.95;52.23
43741;BME280;29352;48.708;9.290;2023-12-07T13:05:33;97938.34;;;2.00;50.54
43741;BME280;29352;48.708;9.290;2023-12-07T13:08:03;97929.16;;;1.35;52.13
43741;BME280;29352;48.708;9.290;2023-12-07T13:10:29;97940.16;;;1.65;51.97
43741;BME280;29352;48.708;9.290;2023-12-07T13:12:55;97940.78;;;2.01;51.07